createdAt,value
2022-10-18T00:00:03.559Z,102471.13
2022-10-18T00:02:34.657Z,102473.00
2022-10-18T00:05:03.658Z,102477.56
2022-10-18T00:07:32.399Z,102474.53
2022-10-18T00:10:00.997Z,102475.59
2022-10-18T00:12:29.441Z,102466.13
2022-10-18T00:14:57.906Z,102481.91
2022-10-18T00:17:26.429Z,102479.75
2022-10-18T00:19:56.238Z,102480.09
2022-10-18T00:22:25.483Z,102486.56
2022-10-18T00:24:54.200Z,102482.53
2022-10-18T00:27:22.614Z,102493.72
2022-10-18T00:29:53.756Z,102495.78
2022-10-18T00:32:22.026Z,102501.59
2022-10-18T00:34:50.829Z,102500.25
2022-10-18T00:37:24.327Z,102498.91
2022-10-18T00:42:23.815Z,102503.69
2022-10-18T00:45:06.843Z,102502.31
2022-10-18T00:47:36.994Z,102503.00
2022-10-18T00:50:09.097Z,102514.22
2022-10-18T00:52:43.467Z,102516.09
2022-10-18T00:55:12.772Z,102522.88
2022-10-18T00:57:44.403Z,102523.41
2022-10-18T01:00:14.696Z,102521.72
2022-10-18T01:02:46.275Z,102523.09
2022-10-18T01:05:20.273Z,102523.25
2022-10-18T01:08:16.320Z,102529.03
2022-10-18T01:10:55.622Z,102543.47
2022-10-18T01:13:34.813Z,102544.31
2022-10-18T01:16:10.412Z,102543.34
2022-10-18T01:18:44.778Z,102542.47
2022-10-18T01:21:24.597Z,102541.13
2022-10-18T01:24:13.677Z,102542.34
2022-10-18T01:27:02.530Z,102548.94
2022-10-18T01:29:45.330Z,102549.97
2022-10-18T01:32:20.270Z,102551.31
2022-10-18T01:34:52.583Z,102546.25
2022-10-18T01:37:23.584Z,102560.84
2022-10-18T01:39:55.005Z,102551.34
2022-10-18T01:42:24.111Z,102549.66
2022-10-18T01:44:54.335Z,102549.31
2022-10-18T01:47:25.123Z,102545.94
2022-10-18T01:50:00.233Z,102545.25
2022-10-18T01:52:30.496Z,102551.00
2022-10-18T01:55:01.596Z,102557.13
2022-10-18T01:57:39.089Z,102559.16
2022-10-18T02:00:14.675Z,102553.72
2022-10-18T02:02:48.893Z,102558.50
2022-10-18T02:05:27.396Z,102561.50
2022-10-18T02:08:22.035Z,102564.41
2022-10-18T02:10:59.987Z,102572.72
2022-10-18T02:13:34.517Z,102569.00
2022-10-18T02:16:09.130Z,102575.41
2022-10-18T02:18:51.798Z,102571.88
2022-10-18T02:21:22.792Z,102566.28
2022-10-18T02:23:51.833Z,102569.66
2022-10-18T02:26:20.306Z,102573.75
2022-10-18T02:28:49.277Z,102574.06
2022-10-18T02:31:23.394Z,102569.00
2022-10-18T02:33:57.268Z,102566.44
2022-10-18T02:36:29.973Z,102567.63
2022-10-18T02:39:14.386Z,102563.56
2022-10-18T02:41:43.499Z,102568.31
2022-10-18T02:44:12.258Z,102573.72
2022-10-18T02:46:41.508Z,102577.44
2022-10-18T02:49:11.295Z,102575.75
2022-10-18T02:51:39.744Z,102570.66
2022-10-18T02:54:08.639Z,102563.56
2022-10-18T02:56:37.445Z,102569.97
2022-10-18T02:59:07.454Z,102559.63
2022-10-18T03:01:36.269Z,102555.59
2022-10-18T03:04:05.741Z,102567.44
2022-10-18T03:06:35.989Z,102563.72
2022-10-18T03:09:06.147Z,102558.78
2022-10-18T03:11:34.921Z,102561.84
2022-10-18T03:14:03.422Z,102566.41
2022-10-18T03:16:34.023Z,102563.84
2022-10-18T03:19:02.678Z,102570.28
2022-10-18T03:21:31.263Z,102569.59
2022-10-18T03:24:01.101Z,102571.66
2022-10-18T03:26:29.573Z,102574.00
2022-10-18T03:28:58.072Z,102576.03
2022-10-18T03:31:26.909Z,102572.47
2022-10-18T03:33:55.704Z,102572.63
2022-10-18T03:36:29.545Z,102578.06
2022-10-18T03:38:58.053Z,102582.13
2022-10-18T03:41:27.852Z,102583.28
2022-10-18T03:43:56.345Z,102582.41
2022-10-18T03:46:24.740Z,102581.56
2022-10-18T03:48:53.227Z,102581.56
2022-10-18T03:51:21.780Z,102589.88
2022-10-18T03:53:50.286Z,102596.47
2022-10-18T03:56:18.730Z,102588.69
2022-10-18T03:58:48.701Z,102591.88
2022-10-18T04:01:17.451Z,102594.56
2022-10-18T04:03:45.913Z,102590.34
2022-10-18T04:06:14.378Z,102576.66
2022-10-18T04:08:43.002Z,102584.22
2022-10-18T04:11:12.507Z,102589.81
2022-10-18T04:13:41.106Z,102584.75
2022-10-18T04:16:10.938Z,102584.75
2022-10-18T04:18:39.418Z,102579.63
2022-10-18T04:21:08.294Z,102576.25
2022-10-18T04:23:38.789Z,102584.19
2022-10-18T04:26:08.055Z,102584.53
2022-10-18T04:28:40.161Z,102592.50
2022-10-18T04:31:11.102Z,102592.81
2022-10-18T04:33:39.958Z,102591.13
2022-10-18T04:36:08.952Z,102595.69
2022-10-18T04:38:37.437Z,102600.38
2022-10-18T04:41:05.993Z,102607.66
2022-10-18T04:43:34.615Z,102603.25
2022-10-18T04:46:03.410Z,102615.41
2022-10-18T04:48:33.330Z,102613.72
2022-10-18T04:51:01.894Z,102612.00
2022-10-18T04:53:30.378Z,102604.91
2022-10-18T04:55:58.827Z,102609.78
2022-10-18T04:58:27.500Z,102609.25
2022-10-18T05:00:56.031Z,102616.38
2022-10-18T05:03:24.576Z,102611.28
2022-10-18T05:06:01.883Z,102614.66
2022-10-18T05:08:32.469Z,102614.66
2022-10-18T05:11:02.100Z,102611.13
2022-10-18T05:13:31.434Z,102614.00
2022-10-18T05:16:00.916Z,102615.16
2022-10-18T05:18:29.494Z,102619.69
2022-10-18T09:20:13.017Z,102794.41
2022-10-18T09:22:53.161Z,102793.00
2022-10-18T09:25:24.294Z,102796.16
2022-10-18T09:27:56.758Z,102790.75
2022-10-18T09:30:36.558Z,102794.47
2022-10-18T09:33:17.949Z,102798.44
2022-10-18T09:35:53.648Z,102796.13
2022-10-18T09:38:26.912Z,102802.44
2022-10-18T09:41:03.033Z,102796.66
2022-10-18T09:43:43.790Z,102798.06
2022-10-18T09:46:13.757Z,102793.28
2022-10-18T09:48:47.918Z,102788.75
2022-10-18T09:51:22.345Z,102797.56
2022-10-18T09:54:04.830Z,102801.78
2022-10-18T09:56:41.943Z,102804.19
2022-10-18T09:59:29.773Z,102806.31
2022-10-18T10:01:58.759Z,102802.09
2022-10-18T10:04:27.579Z,102805.59
2022-10-18T10:07:00.325Z,102799.84
2022-10-18T10:09:31.626Z,102808.59
2022-10-18T10:12:00.515Z,102804.03
2022-10-18T10:14:31.028Z,102808.59
2022-10-18T10:17:03.488Z,102804.25
2022-10-18T10:19:34.534Z,102798.03
2022-10-18T10:22:23.623Z,102801.03
2022-10-18T10:24:57.474Z,102801.69
2022-10-18T10:27:31.440Z,102805.41
2022-10-18T10:30:07.139Z,102808.97
2022-10-18T10:32:48.339Z,102802.19
2022-10-18T10:35:33.932Z,102799.03
2022-10-18T10:38:07.825Z,102799.63
2022-10-18T10:40:45.849Z,102806.88
2022-10-18T10:43:36.491Z,102797.81
2022-10-18T10:46:08.931Z,102791.75
2022-10-18T10:48:46.665Z,102784.78
2022-10-18T10:51:17.007Z,102786.75
2022-10-18T10:53:52.425Z,102791.59
2022-10-18T10:56:27.342Z,102798.38
2022-10-18T10:58:59.357Z,102790.81
2022-10-18T11:01:31.576Z,102794.38
2022-10-18T11:04:03.354Z,102799.44
2022-10-18T11:06:52.422Z,102794.84
2022-10-18T11:09:32.165Z,102791.88
2022-10-18T11:12:09.438Z,102790.63
2022-10-18T11:14:42.429Z,102794.84
2022-10-18T11:17:23.827Z,102783.03
2022-10-18T11:20:13.980Z,102787.44
2022-10-18T11:22:51.916Z,102780.88
2022-10-18T11:25:26.409Z,102779.41
2022-10-18T11:28:02.312Z,102780.91
2022-10-18T11:30:45.921Z,102774.75
2022-10-18T11:33:50.166Z,102780.03
2022-10-18T11:38:58.235Z,102778.28
2022-10-18T11:41:35.393Z,102788.38
2022-10-18T11:44:10.389Z,102779.38
2022-10-18T11:46:51.358Z,102776.53
2022-10-18T11:49:32.617Z,102770.28
2022-10-18T11:52:10.841Z,102776.66
2022-10-18T11:54:52.481Z,102777.22
2022-10-18T11:57:35.910Z,102770.06
2022-10-18T12:00:16.283Z,102771.91
2022-10-18T12:03:09.731Z,102771.25
2022-10-18T12:05:44.667Z,102762.41
2022-10-18T12:08:16.788Z,102761.72
2022-10-18T12:11:06.596Z,102765.81
2022-10-18T12:13:44.378Z,102761.09
2022-10-18T12:16:13.727Z,102748.56
2022-10-18T12:21:25.727Z,102739.53
2022-10-18T12:23:59.686Z,102733.78
2022-10-18T12:26:29.912Z,102732.44
2022-10-18T12:29:09.829Z,102730.25
2022-10-18T12:31:43.949Z,102736.38
2022-10-18T12:34:28.614Z,102738.16
2022-10-18T12:37:12.345Z,102733.63
2022-10-18T12:40:05.123Z,102731.72
2022-10-18T12:42:34.632Z,102731.50
2022-10-18T12:45:18.297Z,102724.16
2022-10-18T12:47:46.897Z,102725.78
2022-10-18T12:50:30.060Z,102722.16
2022-10-18T12:53:16.942Z,102723.41
2022-10-18T12:56:34.277Z,102719.88
2022-10-18T12:59:32.322Z,102709.84
2022-10-18T13:02:25.749Z,102715.53
2022-10-18T13:04:56.901Z,102710.09
2022-10-18T13:07:43.418Z,102709.09
2022-10-18T13:10:38.211Z,102704.94
2022-10-18T13:13:39.619Z,102693.13
2022-10-18T13:16:29.914Z,102694.66
2022-10-18T13:19:18.385Z,102700.72
2022-10-18T13:21:53.701Z,102699.50
2022-10-18T13:24:30.421Z,102692.50
2022-10-18T13:27:34.906Z,102686.66
2022-10-18T13:30:27.797Z,102684.44
2022-10-18T13:33:08.782Z,102680.50
2022-10-18T13:35:55.820Z,102661.72
2022-10-18T13:38:35.643Z,102661.13
2022-10-18T13:41:06.536Z,102666.78
2022-10-18T13:43:52.430Z,102673.13
2022-10-18T13:46:21.298Z,102672.25
2022-10-18T13:48:51.737Z,102672.94
2022-10-18T13:51:46.026Z,102676.03
2022-10-18T13:54:32.059Z,102676.66
2022-10-18T13:57:16.973Z,102675.06
2022-10-18T14:00:09.822Z,102678.19
2022-10-18T14:03:01.878Z,102677.72
2022-10-18T14:05:50.297Z,102675.44
2022-10-18T14:08:25.932Z,102678.25
2022-10-18T14:11:03.150Z,102684.34
2022-10-18T14:13:40.140Z,102678.69
2022-10-18T14:16:28.224Z,102674.91
2022-10-18T14:19:06.129Z,102670.72
2022-10-18T14:21:40.027Z,102670.31
2022-10-18T14:24:25.139Z,102669.00
2022-10-18T14:27:14.030Z,102664.38
2022-10-18T14:29:45.124Z,102664.44
2022-10-18T14:32:25.544Z,102661.88
2022-10-18T14:35:09.165Z,102651.78
2022-10-18T14:37:43.938Z,102659.16
2022-10-18T14:43:07.742Z,102662.81
2022-10-18T14:45:38.932Z,102658.56
2022-10-18T14:48:14.717Z,102675.88
2022-10-18T14:50:45.721Z,102668.25
2022-10-18T14:53:18.777Z,102680.94
2022-10-18T14:55:57.967Z,102677.16
2022-10-18T14:58:29.128Z,102675.91
2022-10-18T15:00:59.148Z,102678.41
2022-10-18T15:03:29.483Z,102677.16
2022-10-18T15:06:00.862Z,102680.94
2022-10-18T15:08:36.182Z,102678.84
2022-10-18T15:11:10.522Z,102689.41
2022-10-18T15:13:49.641Z,102687.28
2022-10-18T15:16:19.870Z,102685.00
2022-10-18T15:19:01.246Z,102687.31
2022-10-18T15:21:30.230Z,102679.94
2022-10-18T15:24:20.150Z,102679.91
2022-10-18T15:26:51.241Z,102684.78
2022-10-18T15:29:24.871Z,102675.50
2022-10-18T15:31:53.785Z,102673.97
2022-10-18T15:34:31.653Z,102672.34
2022-10-18T15:37:18.362Z,102680.53
2022-10-18T15:39:48.090Z,102676.34
2022-10-18T15:42:39.238Z,102679.06
2022-10-18T15:45:31.518Z,102680.34
2022-10-18T15:48:20.966Z,102680.56
2022-10-18T15:51:06.193Z,102691.94
2022-10-18T15:53:43.618Z,102689.84
2022-10-18T15:56:29.909Z,102687.53
2022-10-18T15:59:00.945Z,102688.16
2022-10-18T16:01:36.388Z,102684.59
2022-10-18T16:04:09.827Z,102679.31
2022-10-18T16:06:40.609Z,102684.78
2022-10-18T16:09:16.343Z,102689.78
2022-10-18T16:11:45.450Z,102686.22
2022-10-18T16:14:17.398Z,102686.81
2022-10-18T16:16:48.056Z,102674.84
2022-10-18T16:19:18.881Z,102673.56
2022-10-18T16:21:47.453Z,102677.13
2022-10-18T16:24:16.200Z,102684.69
2022-10-18T16:26:46.061Z,102692.69
2022-10-18T16:29:15.753Z,102694.31
2022-10-18T16:31:46.747Z,102689.72
2022-10-18T16:34:17.368Z,102684.25
2022-10-18T16:36:47.790Z,102685.50
2022-10-18T16:39:19.009Z,102692.59
2022-10-18T16:41:48.531Z,102689.22
2022-10-18T16:44:18.258Z,102689.19
2022-10-18T16:46:52.532Z,102679.44
2022-10-18T16:49:25.353Z,102692.47
2022-10-18T16:51:55.386Z,102690.38
2022-10-18T16:54:24.561Z,102686.31
2022-10-18T16:56:54.378Z,102680.38
2022-10-18T16:59:27.193Z,102679.13
2022-10-18T17:01:57.302Z,102684.53
2022-10-18T17:04:26.038Z,102693.31
2022-10-18T17:06:58.484Z,102691.81
2022-10-18T17:09:27.248Z,102692.44
2022-10-18T17:12:12.555Z,102699.78
2022-10-18T17:14:41.162Z,102707.75
2022-10-18T17:17:13.927Z,102698.47
2022-10-18T17:19:42.489Z,102711.69
2022-10-18T17:22:13.210Z,102714.63
2022-10-18T17:24:45.354Z,102718.59
2022-10-18T17:27:15.886Z,102711.59
2022-10-18T17:29:46.327Z,102704.25
2022-10-18T17:32:20.947Z,102700.41
2022-10-18T17:34:50.116Z,102716.13
2022-10-18T17:37:18.637Z,102717.88
2022-10-18T17:39:47.454Z,102717.59
2022-10-18T17:42:15.908Z,102710.59
2022-10-18T17:44:44.466Z,102717.16
2022-10-18T17:47:35.131Z,102709.56
2022-10-18T17:50:03.894Z,102705.38
2022-10-18T17:52:32.591Z,102703.66
2022-10-18T17:55:01.185Z,102710.38
2022-10-18T17:57:29.859Z,102706.31
2022-10-18T17:59:59.762Z,102705.06
2022-10-18T18:02:28.274Z,102704.63
2022-10-18T18:04:58.406Z,102698.94
2022-10-18T18:07:26.918Z,102700.59
2022-10-18T18:09:55.573Z,102713.47
2022-10-18T18:12:24.522Z,102717.56
2022-10-18T18:14:54.570Z,102716.47
2022-10-18T18:17:33.670Z,102717.31
2022-10-18T18:20:05.251Z,102725.63
2022-10-18T18:22:37.954Z,102731.09
2022-10-18T18:25:09.756Z,102733.88
2022-10-18T18:27:39.113Z,102735.50
2022-10-18T18:30:14.758Z,102725.41
2022-10-18T18:32:45.974Z,102726.03
2022-10-18T18:35:16.048Z,102723.28
2022-10-18T18:37:50.303Z,102729.31
2022-10-18T18:40:20.889Z,102724.69
2022-10-18T18:43:07.357Z,102727.09
2022-10-18T18:45:38.395Z,102721.16
2022-10-18T18:48:14.179Z,102713.59
2022-10-18T18:50:50.691Z,102714.81
2022-10-18T18:53:20.728Z,102709.75
2022-10-18T18:55:52.842Z,102717.59
2022-10-18T18:58:22.273Z,102711.25
2022-10-18T19:00:52.730Z,102711.59
2022-10-18T19:03:23.428Z,102706.75
2022-10-18T19:06:03.848Z,102704.19
2022-10-18T19:08:36.833Z,102697.97
2022-10-18T19:11:09.022Z,102692.34
2022-10-18T19:13:40.496Z,102689.06
2022-10-18T19:16:20.316Z,102688.13
2022-10-18T19:18:56.249Z,102680.19
2022-10-18T19:21:28.385Z,102676.34
2022-10-18T19:24:17.108Z,102678.34
2022-10-18T19:26:47.708Z,102680.06
2022-10-18T19:29:37.718Z,102682.50
2022-10-18T19:32:10.851Z,102685.22
2022-10-18T19:34:40.138Z,102684.84
2022-10-18T19:37:11.819Z,102678.44
2022-10-18T19:39:40.664Z,102682.50
2022-10-18T19:42:14.706Z,102685.50
2022-10-18T19:44:46.043Z,102677.16
2022-10-18T19:47:16.095Z,102671.78
2022-10-18T19:49:46.506Z,102671.44
2022-10-18T19:52:17.126Z,102672.81
2022-10-18T19:54:45.992Z,102672.72
2022-10-18T19:57:17.081Z,102667.00
2022-10-18T20:00:09.790Z,102671.53
2022-10-18T20:02:40.631Z,102672.00
2022-10-18T20:05:09.646Z,102675.56
2022-10-18T20:07:45.876Z,102671.72
2022-10-18T20:27:38.181Z,102664.56
2022-10-18T20:30:10.438Z,102665.97
2022-10-18T20:32:42.033Z,102656.69
2022-10-18T20:35:10.978Z,102662.88
2022-10-18T20:37:39.496Z,102653.28
2022-10-18T20:40:10.857Z,102661.00
2022-10-18T20:42:43.338Z,102667.09
2022-10-18T20:45:31.777Z,102669.28
2022-10-18T20:48:20.191Z,102670.03
2022-10-18T20:50:50.024Z,102671.72
2022-10-18T20:53:18.565Z,102677.38
2022-10-18T20:55:50.008Z,102675.03
2022-10-18T20:58:19.942Z,102676.72
2022-10-18T21:00:48.826Z,102677.81
2022-10-18T21:03:17.627Z,102684.59
2022-10-18T21:05:46.102Z,102673.97
2022-10-18T21:08:16.210Z,102669.19
2022-10-18T21:10:45.908Z,102668.81
2022-10-18T21:13:19.196Z,102670.13
2022-10-18T21:15:55.285Z,102666.19
2022-10-18T21:18:25.642Z,102652.84
2022-10-18T21:20:54.582Z,102661.19
2022-10-18T21:23:23.497Z,102658.66
2022-10-18T21:25:51.973Z,102645.59
2022-10-18T21:28:24.050Z,102645.41
2022-10-18T21:30:54.046Z,102652.66
2022-10-18T21:33:22.626Z,102657.34
2022-10-18T21:35:51.381Z,102656.88
2022-10-18T21:38:20.041Z,102658.56
2022-10-18T21:40:48.546Z,102657.72
2022-10-18T21:43:17.013Z,102661.47
2022-10-18T21:45:49.090Z,102651.16
2022-10-18T21:48:17.618Z,102643.53
2022-10-18T21:50:48.319Z,102643.44
2022-10-18T21:53:18.054Z,102642.69
2022-10-18T21:55:47.581Z,102648.59
2022-10-18T21:58:16.574Z,102647.22
2022-10-18T22:00:45.469Z,102636.88
2022-10-18T22:03:16.015Z,102643.75
2022-10-18T22:05:44.592Z,102645.72
2022-10-18T22:08:13.097Z,102647.03
2022-10-18T22:10:44.305Z,102641.66
2022-10-18T22:13:12.897Z,102638.94
2022-10-18T22:15:41.602Z,102632.34
2022-10-18T22:18:10.305Z,102640.16
2022-10-18T22:20:40.125Z,102629.25
2022-10-18T22:23:11.145Z,102619.41
2022-10-18T22:25:39.398Z,102613.94
2022-10-18T22:28:07.882Z,102609.53
2022-10-18T22:30:38.052Z,102611.16
2022-10-18T22:33:07.191Z,102604.94
2022-10-18T22:35:36.077Z,102603.03
2022-10-18T22:38:07.225Z,102602.88
2022-10-18T22:40:36.028Z,102598.84
2022-10-18T22:43:04.574Z,102586.91
2022-10-18T22:45:34.329Z,102592.72
2022-10-18T22:48:02.876Z,102585.69
2022-10-18T22:50:33.499Z,102578.16
2022-10-18T22:53:02.023Z,102565.78
2022-10-18T22:55:32.029Z,102575.75
2022-10-18T22:58:00.522Z,102560.81
2022-10-18T23:00:29.020Z,102556.94
2022-10-18T23:02:57.544Z,102568.31
2022-10-18T23:05:26.085Z,102565.59
2022-10-18T23:08:03.671Z,102572.44
2022-10-18T23:10:33.728Z,102576.59
2022-10-18T23:13:02.177Z,102571.41
2022-10-18T23:15:31.368Z,102569.16
2022-10-18T23:18:00.323Z,102569.09
2022-10-18T23:20:31.610Z,102569.63
2022-10-18T23:23:00.254Z,102569.09
2022-10-18T23:25:28.789Z,102570.31
2022-10-18T23:27:59.415Z,102568.78
2022-10-18T23:30:28.010Z,102569.53
2022-10-18T23:32:56.489Z,102567.81
2022-10-18T23:35:25.101Z,102562.69
2022-10-18T23:37:53.633Z,102562.69
2022-10-18T23:40:24.634Z,102570.09
2022-10-18T23:42:53.091Z,102564.56
2022-10-18T23:45:22.934Z,102579.97
2022-10-18T23:47:51.377Z,102570.19
2022-10-18T23:50:19.882Z,102571.81
2022-10-18T23:52:48.425Z,102570.19
2022-10-18T23:55:17.067Z,102571.22
2022-10-18T23:57:45.625Z,102575.63
